createdAt,value
2023-02-25T00:00:03.232Z,95.68
2023-02-25T00:01:02.781Z,95.78
2023-02-25T00:02:04.362Z,95.21
2023-02-25T00:03:02.386Z,95.31
2023-02-25T00:04:02.760Z,95.52
2023-02-25T00:05:02.605Z,95.73
2023-02-25T00:06:02.543Z,95.73
2023-02-25T00:07:02.500Z,95.68
2023-02-25T00:08:02.885Z,95.31
2023-02-25T00:09:02.861Z,95.10
2023-02-25T00:10:02.695Z,95.31
2023-02-25T00:11:02.934Z,95.62
2023-02-25T00:12:02.523Z,95.42
2023-02-25T00:13:17.069Z,95.21
2023-02-25T00:14:02.822Z,95.21
2023-02-25T00:15:02.667Z,95.57
2023-02-25T00:16:02.819Z,95.48
2023-02-25T00:17:02.316Z,95.37
2023-02-25T00:18:02.636Z,95.37
2023-02-25T00:19:02.705Z,95.17
2023-02-25T00:20:02.589Z,94.96
2023-02-25T00:21:02.520Z,95.06
2023-02-25T00:22:02.713Z,94.75
2023-02-25T00:23:03.059Z,94.65
2023-02-25T00:24:15.501Z,94.48
2023-02-25T00:25:02.714Z,94.69
2023-02-25T00:26:02.655Z,94.90
2023-02-25T00:27:02.140Z,95.10
2023-02-25T00:28:02.510Z,94.79
2023-02-25T00:29:02.540Z,94.69
2023-02-25T00:30:02.713Z,94.69
2023-02-25T00:31:02.544Z,95.00
2023-02-25T00:32:03.085Z,94.59
2023-02-25T00:33:02.752Z,94.69
2023-02-25T00:34:02.360Z,94.90
2023-02-25T00:35:02.416Z,95.21
2023-02-25T00:36:02.885Z,94.59
2023-02-25T00:37:03.096Z,94.07
2023-02-25T00:38:14.860Z,93.97
2023-02-25T00:39:03.143Z,94.28
2023-02-25T00:40:02.763Z,94.38
2023-02-25T00:41:02.899Z,94.48
2023-02-25T00:42:02.481Z,94.79
2023-02-25T00:43:02.457Z,94.79
2023-02-25T00:44:02.120Z,94.48
2023-02-25T00:45:02.496Z,94.38
2023-02-25T00:46:02.093Z,94.59
2023-02-25T00:47:02.853Z,94.59
2023-02-25T00:48:02.918Z,94.69
2023-02-25T00:49:02.437Z,94.79
2023-02-25T00:50:03.014Z,94.18
2023-02-25T00:51:02.481Z,94.18
2023-02-25T00:52:02.833Z,94.38
2023-02-25T00:53:02.727Z,94.38
2023-02-25T00:54:02.809Z,94.38
2023-02-25T00:55:03.242Z,94.38
2023-02-25T00:56:03.236Z,94.38
2023-02-25T00:57:02.334Z,94.48
2023-02-25T00:58:02.353Z,94.79
2023-02-25T00:59:02.550Z,94.90
2023-02-25T01:00:02.233Z,94.79
2023-02-25T01:01:02.367Z,95.10
2023-02-25T01:02:03.275Z,95.00
2023-02-25T01:03:03.160Z,95.21
2023-02-25T01:04:03.284Z,95.10
2023-02-25T01:05:03.078Z,94.90
2023-02-25T01:06:03.065Z,95.31
2023-02-25T01:07:03.739Z,95.21
2023-02-25T01:08:02.594Z,95.10
2023-02-25T01:09:03.062Z,95.31
2023-02-25T01:10:03.092Z,95.52
2023-02-25T01:11:02.785Z,95.62
2023-02-25T01:12:03.176Z,95.52
2023-02-25T01:13:03.269Z,95.21
2023-02-25T01:14:03.301Z,95.42
2023-02-25T01:15:02.801Z,95.62
2023-02-25T01:16:03.102Z,95.52
2023-02-25T01:17:02.916Z,95.73
2023-02-25T01:18:03.273Z,95.94
2023-02-25T01:19:02.630Z,95.62
2023-02-25T01:20:02.970Z,95.42
2023-02-25T01:21:03.034Z,95.21
2023-02-25T01:22:03.159Z,95.42
2023-02-25T01:23:03.417Z,95.42
2023-02-25T01:24:03.295Z,95.31
2023-02-25T01:25:03.062Z,95.52
2023-02-25T01:26:02.858Z,95.94
2023-02-25T01:27:02.625Z,95.62
2023-02-25T01:28:02.305Z,95.73
2023-02-25T01:29:02.910Z,95.73
2023-02-25T01:30:02.601Z,95.52
2023-02-25T01:31:02.801Z,95.62
2023-02-25T01:32:03.399Z,95.73
2023-02-25T01:33:03.186Z,95.83
2023-02-25T01:34:03.114Z,96.14
2023-02-25T01:35:02.851Z,96.03
2023-02-25T01:36:03.237Z,95.94
2023-02-25T01:37:02.560Z,95.94
2023-02-25T01:38:02.502Z,96.24
2023-02-25T01:39:02.359Z,95.62
2023-02-25T01:40:02.691Z,95.52
2023-02-25T01:41:02.297Z,95.52
2023-02-25T01:42:03.212Z,95.21
2023-02-25T01:43:02.802Z,95.52
2023-02-25T01:44:02.543Z,95.52
2023-02-25T01:45:02.993Z,95.83
2023-02-25T01:46:02.956Z,95.42
2023-02-25T01:47:02.712Z,95.52
2023-02-25T01:48:02.451Z,95.52
2023-02-25T01:49:02.745Z,95.52
2023-02-25T01:50:02.340Z,95.21
2023-02-25T01:51:02.487Z,95.10
2023-02-25T01:52:02.868Z,95.31
2023-02-25T01:53:03.182Z,95.31
2023-02-25T01:54:02.612Z,95.21
2023-02-25T01:55:02.720Z,95.52
2023-02-25T01:56:02.765Z,95.83
2023-02-25T01:57:02.499Z,95.42
2023-02-25T01:58:02.384Z,95.00
2023-02-25T01:59:01.938Z,95.21
2023-02-25T02:00:02.436Z,95.00
2023-02-25T02:01:02.031Z,95.10
2023-02-25T02:02:03.567Z,95.10
2023-02-25T02:03:03.417Z,95.31
2023-02-25T02:04:03.515Z,95.25
2023-02-25T02:05:03.202Z,95.52
2023-02-25T02:06:03.649Z,95.73
2023-02-25T02:07:02.709Z,95.42
2023-02-25T02:08:02.854Z,95.31
2023-02-25T02:09:03.515Z,95.21
2023-02-25T02:10:02.780Z,95.62
2023-02-25T02:11:03.202Z,95.42
2023-02-25T02:12:03.372Z,95.10
2023-02-25T02:13:03.229Z,95.00
2023-02-25T02:14:03.519Z,94.90
2023-02-25T02:15:03.268Z,94.59
2023-02-25T02:16:03.067Z,94.63
2023-02-25T02:17:02.506Z,94.84
2023-02-25T02:18:02.966Z,95.15
2023-02-25T02:19:02.791Z,95.04
2023-02-25T02:20:02.832Z,95.04
2023-02-25T02:21:02.534Z,94.73
2023-02-25T02:22:02.656Z,94.73
2023-02-25T02:23:02.605Z,94.94
2023-02-25T02:24:02.917Z,94.84
2023-02-25T02:25:02.743Z,94.94
2023-02-25T02:26:02.754Z,95.15
2023-02-25T02:27:03.133Z,94.94
2023-02-25T02:28:03.025Z,94.94
2023-02-25T02:29:02.907Z,94.63
2023-02-25T02:30:03.275Z,94.63
2023-02-25T02:31:03.000Z,94.73
2023-02-25T02:32:03.463Z,94.63
2023-02-25T02:33:03.631Z,94.63
2023-02-25T02:34:03.362Z,94.68
2023-02-25T02:35:03.336Z,94.68
2023-02-25T02:36:03.416Z,94.89
2023-02-25T02:37:03.065Z,94.89
2023-02-25T02:38:02.958Z,94.98
2023-02-25T02:39:02.879Z,94.98
2023-02-25T02:40:03.033Z,95.19
2023-02-25T02:41:03.025Z,94.89
2023-02-25T02:42:03.022Z,94.98
2023-02-25T02:43:02.764Z,94.94
2023-02-25T02:44:03.079Z,94.73
2023-02-25T02:45:02.440Z,94.43
2023-02-25T02:46:02.766Z,94.16
2023-02-25T02:47:03.364Z,94.57
2023-02-25T02:48:03.004Z,94.68
2023-02-25T02:49:03.191Z,94.63
2023-02-25T02:50:03.297Z,94.73
2023-02-25T02:51:03.431Z,94.84
2023-02-25T02:52:02.996Z,94.53
2023-02-25T02:53:02.648Z,94.43
2023-02-25T02:54:02.995Z,94.53
2023-02-25T02:55:02.727Z,94.43
2023-02-25T02:56:02.808Z,94.22
2023-02-25T02:57:03.072Z,94.26
2023-02-25T02:58:03.325Z,94.57
2023-02-25T02:59:02.972Z,94.47
2023-02-25T03:00:03.235Z,94.78
2023-02-25T03:01:03.429Z,94.84
2023-02-25T03:02:02.488Z,94.94
2023-02-25T03:03:02.068Z,94.12
2023-02-25T03:04:02.273Z,93.95
2023-02-25T03:05:02.202Z,93.95
2023-02-25T03:06:02.616Z,94.26
2023-02-25T03:07:03.118Z,94.57
2023-02-25T03:08:03.197Z,94.68
2023-02-25T03:09:02.909Z,94.89
2023-02-25T03:10:03.255Z,95.09
2023-02-25T03:11:02.741Z,95.09
2023-02-25T03:12:03.288Z,94.89
2023-02-25T03:13:03.550Z,95.09
2023-02-25T03:14:03.035Z,94.89
2023-02-25T03:15:03.238Z,94.78
2023-02-25T03:16:02.949Z,94.89
2023-02-25T03:17:02.816Z,94.98
2023-02-25T03:18:02.599Z,95.09
2023-02-25T03:19:02.773Z,95.09
2023-02-25T03:20:02.664Z,94.89
2023-02-25T03:21:02.572Z,95.09
2023-02-25T03:22:02.823Z,94.98
2023-02-25T03:23:02.974Z,95.19
2023-02-25T03:24:02.825Z,95.19
2023-02-25T03:25:03.005Z,95.09
2023-02-25T03:26:02.942Z,95.40
2023-02-25T03:27:03.187Z,95.19
2023-02-25T03:28:03.269Z,95.29
2023-02-25T03:29:03.168Z,95.19
2023-02-25T03:30:02.719Z,95.09
2023-02-25T03:31:02.820Z,95.19
2023-02-25T03:32:02.627Z,95.29
2023-02-25T03:33:02.548Z,95.40
2023-02-25T03:34:02.520Z,95.19
2023-02-25T03:35:02.862Z,95.19
2023-02-25T03:36:02.921Z,95.09
2023-02-25T03:37:02.907Z,95.19
2023-02-25T03:38:02.833Z,95.09
2023-02-25T03:39:02.510Z,94.98
2023-02-25T03:40:02.364Z,95.09
2023-02-25T03:41:02.403Z,94.98
2023-02-25T03:42:02.930Z,94.98
2023-02-25T03:43:03.033Z,95.09
2023-02-25T03:44:02.853Z,94.98
2023-02-25T03:45:02.658Z,95.09
2023-02-25T03:46:02.987Z,94.89
2023-02-25T03:47:02.666Z,94.98
2023-02-25T03:48:02.634Z,95.19
2023-02-25T03:49:02.491Z,95.29
2023-02-25T03:50:02.492Z,94.68
2023-02-25T03:51:02.725Z,94.78
2023-02-25T03:52:02.582Z,94.89
2023-02-25T03:53:02.570Z,95.09
2023-02-25T03:54:02.810Z,94.98
2023-02-25T03:55:02.840Z,95.09
2023-02-25T03:56:02.828Z,95.09
2023-02-25T03:57:02.779Z,95.19
2023-02-25T03:58:03.058Z,94.89
2023-02-25T03:59:02.906Z,94.98
2023-02-25T04:00:02.994Z,94.78
2023-02-25T04:01:03.029Z,95.09
2023-02-25T04:02:02.313Z,94.89
2023-02-25T04:03:02.090Z,94.78
2023-02-25T04:04:02.104Z,94.78
2023-02-25T04:05:01.899Z,95.09
2023-02-25T04:06:01.989Z,94.98
2023-02-25T04:07:02.687Z,94.98
2023-02-25T04:08:02.681Z,95.09
2023-02-25T04:09:02.719Z,95.09
2023-02-25T04:10:02.884Z,94.78
2023-02-25T04:11:02.558Z,94.78
2023-02-25T04:12:02.220Z,94.78
2023-02-25T04:13:02.043Z,94.68
2023-02-25T04:14:02.356Z,94.89
2023-02-25T04:15:02.168Z,95.19
2023-02-25T04:16:02.073Z,95.19
2023-02-25T04:17:02.520Z,95.19
2023-02-25T04:18:02.588Z,94.89
2023-02-25T04:19:02.768Z,94.68
2023-02-25T04:20:02.499Z,94.68
2023-02-25T04:21:02.396Z,94.98
2023-02-25T04:22:02.167Z,95.09
2023-02-25T04:23:01.969Z,95.29
2023-02-25T04:24:02.360Z,94.98
2023-02-25T04:25:02.393Z,95.09
2023-02-25T04:26:02.463Z,95.19
2023-02-25T04:27:02.886Z,94.89
2023-02-25T04:28:02.601Z,94.98
2023-02-25T04:29:02.741Z,95.19
2023-02-25T04:30:02.696Z,95.61
2023-02-25T04:31:02.975Z,95.71
2023-02-25T04:32:03.168Z,95.81
2023-02-25T04:33:02.930Z,96.02
2023-02-25T04:34:03.042Z,96.33
2023-02-25T04:35:02.678Z,96.23
2023-02-25T04:36:02.813Z,96.23
2023-02-25T04:37:02.330Z,96.23
2023-02-25T04:38:01.965Z,96.44
2023-02-25T04:39:02.053Z,96.75
2023-02-25T04:40:02.237Z,96.95
2023-02-25T04:41:02.034Z,97.06
2023-02-25T04:42:02.586Z,96.95
2023-02-25T04:43:02.341Z,96.64
2023-02-25T04:44:02.632Z,96.75
2023-02-25T04:45:02.161Z,97.16
2023-02-25T04:46:02.419Z,97.26
2023-02-25T04:47:02.274Z,97.20
2023-02-25T04:48:02.114Z,97.26
2023-02-25T04:49:01.754Z,97.36
2023-02-25T04:50:02.299Z,97.26
2023-02-25T04:51:01.644Z,97.06
2023-02-25T04:52:01.956Z,97.31
2023-02-25T04:53:02.589Z,97.20
2023-02-25T04:54:02.048Z,97.10
2023-02-25T04:55:02.272Z,97.41
2023-02-25T04:56:02.323Z,97.41
2023-02-25T04:57:02.737Z,97.62
2023-02-25T04:58:02.545Z,97.62
2023-02-25T04:59:02.776Z,97.72
2023-02-25T05:00:02.900Z,97.72
2023-02-25T05:01:03.021Z,97.83
2023-02-25T05:02:02.461Z,97.83
2023-02-25T05:03:02.325Z,97.83
2023-02-25T05:04:02.115Z,97.83
2023-02-25T05:05:02.024Z,97.62
2023-02-25T05:06:02.168Z,97.62
2023-02-25T05:07:02.774Z,97.57
2023-02-25T05:08:02.828Z,97.52
2023-02-25T05:09:02.512Z,97.36
2023-02-25T05:10:02.748Z,97.31
2023-02-25T05:11:02.987Z,97.26
2023-02-25T05:12:02.557Z,97.31
2023-02-25T05:13:02.475Z,97.41
2023-02-25T05:14:02.450Z,97.52
2023-02-25T05:15:02.564Z,97.31
2023-02-25T05:16:02.930Z,97.20
2023-02-25T05:17:02.107Z,97.20
2023-02-25T05:18:01.752Z,97.20
2023-02-25T05:19:02.105Z,97.31
2023-02-25T05:20:01.905Z,97.16
2023-02-25T05:21:02.289Z,97.06
2023-02-25T05:22:01.915Z,96.89
2023-02-25T05:23:01.897Z,96.85
2023-02-25T05:24:02.502Z,96.95
2023-02-25T05:25:02.006Z,97.06
2023-02-25T05:26:02.101Z,96.95
2023-02-25T05:27:02.772Z,96.95
2023-02-25T05:28:02.607Z,96.75
2023-02-25T05:29:02.658Z,96.54
2023-02-25T05:30:02.853Z,96.44
2023-02-25T05:31:02.431Z,96.64
2023-02-25T05:32:03.153Z,96.64
2023-02-25T05:33:03.185Z,96.64
2023-02-25T05:34:02.842Z,96.44
2023-02-25T05:35:02.795Z,96.33
2023-02-25T05:36:02.827Z,96.23
2023-02-25T05:37:02.928Z,96.44
2023-02-25T05:38:02.536Z,96.54
2023-02-25T05:39:02.526Z,96.33
2023-02-25T05:40:02.618Z,96.33
2023-02-25T05:41:03.038Z,96.23
2023-02-25T05:42:01.785Z,96.02
2023-02-25T05:43:01.908Z,96.44
2023-02-25T05:44:01.993Z,96.23
2023-02-25T05:45:02.084Z,96.12
2023-02-25T05:46:01.740Z,96.33
2023-02-25T05:47:03.026Z,96.54
2023-02-25T05:48:02.363Z,96.17
2023-02-25T05:49:02.472Z,96.48
2023-02-25T05:50:02.277Z,96.37
2023-02-25T05:51:03.074Z,96.27
2023-02-25T05:52:02.544Z,96.48
2023-02-25T05:53:02.107Z,96.69
2023-02-25T05:54:02.364Z,97.00
2023-02-25T05:55:02.084Z,96.95
2023-02-25T05:56:02.323Z,96.64
2023-02-25T05:57:02.456Z,96.54
2023-02-25T05:58:02.310Z,96.54
2023-02-25T05:59:02.825Z,96.54
2023-02-25T06:00:02.896Z,96.64
2023-02-25T06:01:02.400Z,96.33
2023-02-25T06:02:03.431Z,96.33
2023-02-25T06:03:03.141Z,96.44
2023-02-25T06:04:03.508Z,96.75
2023-02-25T06:05:03.483Z,96.12
2023-02-25T06:06:03.563Z,96.12
2023-02-25T06:07:03.316Z,96.23
2023-02-25T06:08:03.341Z,96.12
2023-02-25T06:09:03.545Z,96.33
2023-02-25T06:10:03.806Z,96.12
2023-02-25T06:11:03.708Z,96.23
2023-02-25T06:12:03.153Z,96.02
2023-02-25T06:13:02.704Z,95.92
2023-02-25T06:14:02.629Z,95.92
2023-02-25T06:15:02.872Z,96.12
2023-02-25T06:16:02.644Z,96.02
2023-02-25T06:17:02.552Z,95.81
2023-02-25T06:18:03.237Z,95.81
2023-02-25T06:19:02.863Z,96.02
2023-02-25T06:20:03.161Z,96.02
2023-02-25T06:21:02.796Z,95.92
2023-02-25T06:22:02.892Z,95.92
2023-02-25T06:23:03.420Z,95.92
2023-02-25T06:24:05.540Z,95.81
2023-02-25T06:25:03.516Z,95.92
2023-02-25T06:26:03.420Z,95.92
2023-02-25T06:27:03.075Z,96.02
2023-02-25T06:28:03.465Z,95.81
2023-02-25T06:29:03.568Z,96.12
2023-02-25T06:30:03.006Z,96.33
2023-02-25T06:31:03.258Z,96.54
2023-02-25T06:32:02.616Z,96.02
2023-02-25T06:33:02.535Z,96.23
2023-02-25T06:34:02.508Z,95.81
2023-02-25T06:35:02.302Z,95.81
2023-02-25T06:36:02.597Z,95.92
2023-02-25T06:37:03.034Z,95.92
2023-02-25T06:38:02.420Z,95.71
2023-02-25T06:39:02.794Z,95.92
2023-02-25T06:40:03.037Z,95.92
2023-02-25T06:41:02.849Z,95.71
2023-02-25T06:42:02.637Z,95.65
2023-02-25T06:43:03.197Z,95.86
2023-02-25T06:44:03.063Z,95.71
2023-02-25T06:45:03.090Z,95.81
2023-02-25T06:46:02.993Z,95.65
2023-02-25T06:47:03.160Z,95.81
2023-02-25T06:48:03.303Z,95.75
2023-02-25T06:49:02.907Z,95.81
2023-02-25T06:50:03.011Z,95.61
2023-02-25T06:51:03.080Z,95.61
2023-02-25T06:52:03.555Z,95.71
2023-02-25T06:53:02.976Z,95.71
2023-02-25T06:54:03.202Z,95.71
2023-02-25T06:55:02.936Z,95.71
2023-02-25T06:56:02.975Z,95.61
2023-02-25T06:57:02.530Z,95.40
2023-02-25T06:58:02.614Z,95.61
2023-02-25T06:59:02.524Z,95.29
2023-02-25T07:00:02.975Z,95.61
2023-02-25T07:01:02.648Z,96.02
2023-02-25T07:02:02.609Z,95.61
2023-02-25T07:03:03.138Z,95.71
2023-02-25T07:04:02.995Z,95.29
2023-02-25T07:05:02.826Z,94.98
2023-02-25T07:06:03.142Z,94.89
2023-02-25T07:07:02.989Z,94.78
2023-02-25T07:08:03.148Z,94.78
2023-02-25T07:09:02.738Z,94.89
2023-02-25T07:10:03.137Z,95.40
2023-02-25T07:11:03.185Z,95.29
2023-02-25T07:12:03.247Z,95.29
2023-02-25T07:13:03.135Z,95.09
2023-02-25T07:14:03.277Z,95.19
2023-02-25T07:15:02.872Z,95.19
2023-02-25T07:16:02.686Z,94.73
2023-02-25T07:17:02.238Z,94.78
2023-02-25T07:18:02.008Z,94.73
2023-02-25T07:19:02.276Z,94.63
2023-02-25T07:20:02.156Z,94.43
2023-02-25T07:21:02.234Z,94.57
2023-02-25T07:22:01.872Z,94.89
2023-02-25T07:23:02.337Z,94.89
2023-02-25T07:24:02.195Z,94.53
2023-02-25T07:25:01.988Z,94.73
2023-02-25T07:26:01.962Z,95.04
2023-02-25T07:27:02.043Z,94.53
2023-02-25T07:28:02.493Z,94.63
2023-02-25T07:29:02.491Z,94.73
2023-02-25T07:30:02.313Z,94.22
2023-02-25T07:31:02.668Z,94.12
2023-02-25T07:32:02.564Z,94.32
2023-02-25T07:33:03.096Z,94.01
2023-02-25T07:34:02.592Z,93.91
2023-02-25T07:35:02.518Z,94.01
2023-02-25T07:36:02.781Z,94.01
2023-02-25T07:37:02.149Z,94.01
2023-02-25T07:38:02.221Z,94.32
2023-02-25T07:39:02.020Z,94.43
2023-02-25T07:40:01.749Z,93.91
2023-02-25T07:41:02.051Z,94.12
2023-02-25T07:42:02.498Z,94.43
2023-02-25T07:43:02.896Z,94.63
2023-02-25T07:44:02.796Z,94.32
2023-02-25T07:45:02.742Z,93.70
2023-02-25T07:46:02.894Z,94.22
2023-02-25T07:47:02.245Z,94.22
2023-02-25T07:48:01.620Z,94.01
2023-02-25T07:49:01.713Z,93.60
2023-02-25T07:50:02.249Z,94.01
2023-02-25T07:51:01.609Z,94.12
2023-02-25T07:52:01.992Z,94.12
2023-02-25T07:53:01.798Z,93.80
2023-02-25T07:54:02.222Z,93.60
2023-02-25T07:55:01.812Z,93.29
2023-02-25T07:56:01.683Z,93.49
2023-02-25T07:57:02.002Z,93.49
2023-02-25T07:58:02.116Z,93.49
2023-02-25T07:59:02.073Z,93.60
2023-02-25T08:00:02.035Z,93.39
2023-02-25T08:01:01.772Z,93.49
2023-02-25T08:02:02.485Z,93.39
2023-02-25T08:03:01.856Z,93.60
2023-02-25T08:04:02.521Z,94.01
2023-02-25T08:05:01.815Z,93.80
2023-02-25T08:06:01.894Z,93.70
2023-02-25T08:07:02.322Z,93.66
2023-02-25T08:08:02.230Z,93.35
2023-02-25T08:09:02.011Z,93.45
2023-02-25T08:10:02.608Z,93.55
2023-02-25T08:11:02.595Z,93.35
2023-02-25T08:12:02.713Z,93.35
2023-02-25T08:13:02.825Z,93.35
2023-02-25T08:14:02.299Z,93.55
2023-02-25T08:15:02.826Z,92.93
2023-02-25T08:16:02.700Z,92.63
2023-02-25T08:17:02.027Z,93.14
2023-02-25T08:18:02.253Z,92.93
2023-02-25T08:19:02.240Z,92.83
2023-02-25T08:20:02.235Z,93.14
2023-02-25T08:21:02.993Z,92.72
2023-02-25T08:22:02.111Z,92.72
2023-02-25T08:23:02.238Z,92.32
2023-02-25T08:24:02.173Z,92.42
2023-02-25T08:25:02.219Z,92.42
2023-02-25T08:26:02.477Z,92.93
2023-02-25T08:27:02.147Z,92.83
2023-02-25T08:28:02.033Z,93.30
2023-02-25T08:29:01.768Z,92.48
2023-02-25T08:30:02.232Z,92.27
2023-02-25T08:31:02.452Z,91.86
2023-02-25T08:32:02.756Z,91.69
2023-02-25T08:33:02.943Z,91.90
2023-02-25T08:34:02.409Z,91.90
2023-02-25T08:35:02.751Z,92.00
2023-02-25T08:36:02.510Z,91.80
2023-02-25T08:37:02.258Z,92.00
2023-02-25T08:38:02.015Z,92.32
2023-02-25T08:39:02.017Z,91.75
2023-02-25T08:40:02.254Z,91.55
2023-02-25T08:41:01.990Z,91.65
2023-02-25T08:42:02.429Z,91.96
2023-02-25T08:43:02.480Z,91.86
2023-02-25T08:44:02.132Z,91.24
2023-02-25T08:45:02.098Z,91.86
2023-02-25T08:46:01.912Z,92.17
2023-02-25T08:47:02.599Z,91.96
2023-02-25T08:48:02.490Z,91.96
2023-02-25T08:49:02.649Z,92.07
2023-02-25T08:50:02.572Z,91.75
2023-02-25T08:51:02.257Z,91.75
2023-02-25T08:52:01.694Z,91.82
2023-02-25T08:53:01.977Z,91.82
2023-02-25T08:54:02.130Z,92.02
2023-02-25T08:55:01.634Z,91.92
2023-02-25T08:56:02.070Z,92.13
2023-02-25T08:57:02.125Z,92.02
2023-02-25T08:58:02.475Z,92.13
2023-02-25T08:59:02.409Z,92.23
2023-02-25T09:00:04.345Z,92.19
2023-02-25T09:01:01.950Z,91.88
2023-02-25T09:02:03.224Z,91.16
2023-02-25T09:03:03.300Z,90.53
2023-02-25T09:04:03.261Z,90.64
2023-02-25T09:05:03.145Z,90.84
2023-02-25T09:06:03.342Z,90.53
2023-02-25T09:07:02.872Z,90.74
2023-02-25T09:08:02.760Z,90.22
2023-02-25T09:09:02.915Z,90.43
2023-02-25T09:10:02.631Z,89.92
2023-02-25T09:11:02.355Z,90.53
2023-02-25T09:12:02.980Z,89.81
2023-02-25T09:13:02.375Z,90.43
2023-02-25T09:14:03.062Z,90.53
2023-02-25T09:15:02.827Z,90.39
2023-02-25T09:16:02.777Z,90.08
2023-02-25T09:17:03.260Z,89.56
2023-02-25T09:18:03.348Z,89.25
2023-02-25T09:19:02.735Z,89.87
2023-02-25T09:20:02.921Z,89.77
2023-02-25T09:21:02.891Z,89.87
2023-02-25T09:22:02.763Z,89.98
2023-02-25T09:23:02.655Z,89.25
2023-02-25T09:24:02.615Z,89.98
2023-02-25T09:25:02.684Z,90.53
2023-02-25T09:26:02.961Z,91.56
2023-02-25T09:27:02.641Z,92.19
2023-02-25T09:28:02.504Z,91.92
2023-02-25T09:29:02.705Z,92.13
2023-02-25T09:30:02.523Z,92.44
2023-02-25T09:31:02.569Z,93.37
2023-02-25T09:32:03.317Z,92.79
2023-02-25T09:33:03.534Z,92.99
2023-02-25T09:34:03.098Z,93.41
2023-02-25T09:35:02.992Z,93.97
2023-02-25T09:36:03.013Z,93.97
2023-02-25T09:37:03.343Z,94.28
2023-02-25T09:38:03.153Z,94.79
2023-02-25T09:39:03.395Z,94.79
2023-02-25T09:40:03.127Z,95.00
2023-02-25T09:41:03.112Z,95.21
2023-02-25T09:42:02.798Z,95.36
2023-02-25T09:43:02.455Z,95.56
2023-02-25T09:44:02.635Z,95.94
2023-02-25T09:45:02.577Z,96.24
2023-02-25T09:46:02.753Z,96.34
2023-02-25T09:47:03.106Z,96.14
2023-02-25T09:48:02.705Z,96.34
2023-02-25T09:49:02.774Z,96.09
2023-02-25T09:50:02.620Z,95.57
2023-02-25T09:51:03.025Z,95.37
2023-02-25T09:52:02.626Z,95.68
2023-02-25T09:53:02.784Z,96.09
2023-02-25T09:54:02.600Z,95.57
2023-02-25T09:55:02.558Z,95.48
2023-02-25T09:56:02.502Z,95.02
2023-02-25T09:57:02.226Z,94.60
2023-02-25T09:58:02.364Z,94.71
2023-02-25T09:59:02.142Z,94.50
2023-02-25T10:00:02.281Z,94.29
2023-02-25T10:01:02.454Z,93.94
2023-02-25T10:02:02.415Z,93.88
2023-02-25T10:03:02.483Z,94.29
2023-02-25T10:04:02.476Z,94.50
2023-02-25T10:05:02.487Z,94.60
2023-02-25T10:06:02.381Z,94.71
2023-02-25T10:07:03.691Z,94.46
2023-02-25T10:08:03.145Z,94.25
2023-02-25T10:09:03.546Z,94.15
2023-02-25T10:10:03.406Z,94.25
2023-02-25T10:11:03.306Z,94.35
2023-02-25T10:12:02.174Z,94.25
2023-02-25T10:13:02.399Z,94.56
2023-02-25T10:14:02.234Z,94.81
2023-02-25T10:15:02.298Z,95.22
2023-02-25T10:16:02.429Z,95.43
2023-02-25T10:17:03.253Z,95.74
2023-02-25T10:18:03.078Z,95.64
2023-02-25T10:19:03.209Z,95.95
2023-02-25T10:20:03.200Z,95.95
2023-02-25T10:21:02.877Z,95.53
2023-02-25T10:22:03.347Z,96.05
2023-02-25T10:23:02.833Z,96.56
2023-02-25T10:24:03.341Z,96.15
2023-02-25T10:25:03.409Z,95.84
2023-02-25T10:26:02.814Z,96.15
2023-02-25T10:27:02.443Z,96.26
2023-02-25T10:28:02.520Z,96.20
2023-02-25T10:29:02.583Z,96.61
2023-02-25T10:30:02.489Z,96.61
2023-02-25T10:31:02.573Z,96.61
2023-02-25T10:32:02.784Z,96.82
2023-02-25T10:33:02.869Z,96.61
2023-02-25T10:34:03.990Z,96.86
2023-02-25T10:35:02.417Z,96.82
2023-02-25T10:36:03.010Z,97.23
2023-02-25T10:37:02.698Z,97.44
2023-02-25T10:38:02.756Z,97.44
2023-02-25T10:39:02.919Z,97.75
2023-02-25T10:40:04.801Z,98.37
2023-02-25T10:41:03.120Z,98.84
2023-02-25T10:42:03.093Z,99.25
2023-02-25T10:43:02.939Z,99.10
2023-02-25T10:44:02.674Z,98.58
2023-02-25T10:45:02.859Z,98.28
2023-02-25T10:46:02.837Z,97.72
2023-02-25T10:47:03.296Z,97.20
2023-02-25T10:48:03.487Z,97.20
2023-02-25T10:49:03.062Z,97.88
2023-02-25T10:50:03.353Z,97.88
2023-02-25T10:51:03.354Z,96.39
2023-02-25T10:52:02.186Z,94.64
2023-02-25T10:53:02.483Z,95.00
2023-02-25T10:54:02.426Z,95.83
2023-02-25T10:55:02.296Z,95.68
2023-02-25T10:56:02.218Z,94.96
2023-02-25T10:57:02.554Z,94.03
2023-02-25T10:58:03.012Z,92.96
2023-02-25T10:59:02.795Z,90.90
2023-02-25T11:00:02.564Z,91.72
2023-02-25T11:01:02.689Z,91.72
2023-02-25T11:02:03.022Z,91.31
2023-02-25T11:03:02.833Z,89.62
2023-02-25T11:04:03.391Z,90.03
2023-02-25T11:05:03.383Z,90.14
2023-02-25T11:06:02.952Z,88.90
2023-02-25T11:07:03.388Z,88.90
2023-02-25T11:08:03.459Z,87.67
2023-02-25T11:09:03.468Z,86.88
2023-02-25T11:10:03.308Z,87.92
2023-02-25T11:11:03.677Z,88.53
2023-02-25T11:12:02.862Z,88.43
2023-02-25T11:13:02.685Z,88.64
2023-02-25T11:14:02.915Z,86.58
2023-02-25T11:15:03.251Z,87.60
2023-02-25T11:16:02.717Z,88.02
2023-02-25T11:17:02.910Z,88.18
2023-02-25T11:18:03.227Z,88.29
2023-02-25T11:19:02.942Z,88.29
2023-02-25T11:20:03.172Z,87.87
2023-02-25T11:21:03.181Z,87.57
2023-02-25T11:22:03.187Z,88.08
2023-02-25T11:23:03.461Z,87.26
2023-02-25T11:24:03.630Z,86.13
2023-02-25T11:25:03.316Z,87.19
2023-02-25T11:26:03.221Z,87.81
2023-02-25T11:27:02.625Z,86.37
2023-02-25T11:28:02.425Z,86.52
2023-02-25T11:29:02.715Z,87.34
2023-02-25T11:30:02.359Z,87.90
2023-02-25T11:31:02.641Z,89.03
2023-02-25T11:32:03.188Z,90.06
2023-02-25T11:33:03.289Z,89.75
2023-02-25T11:34:03.493Z,89.23
2023-02-25T11:35:03.034Z,89.23
2023-02-25T11:36:03.017Z,89.89
2023-02-25T11:37:02.712Z,90.16
2023-02-25T11:38:02.514Z,90.88
2023-02-25T11:39:02.805Z,90.16
2023-02-25T11:40:02.503Z,90.99
2023-02-25T11:41:02.993Z,89.13
2023-02-25T11:42:02.974Z,88.82
2023-02-25T11:43:02.846Z,88.72
2023-02-25T11:44:03.263Z,89.13
2023-02-25T11:45:02.941Z,89.34
2023-02-25T11:46:02.846Z,89.23
2023-02-25T11:47:03.546Z,88.82
2023-02-25T11:48:03.405Z,88.62
2023-02-25T11:49:03.187Z,89.19
2023-02-25T11:50:03.605Z,89.34
2023-02-25T11:51:03.227Z,88.57
2023-02-25T11:52:02.544Z,88.68
2023-02-25T11:53:02.681Z,87.96
2023-02-25T11:54:02.143Z,89.19
2023-02-25T11:55:02.527Z,88.95
2023-02-25T11:56:02.260Z,87.51
2023-02-25T11:57:02.830Z,87.71
2023-02-25T11:58:03.013Z,88.53
2023-02-25T11:59:02.758Z,88.74
2023-02-25T12:00:02.882Z,88.84
2023-02-25T12:01:02.409Z,88.49
2023-02-25T12:02:02.955Z,87.36
2023-02-25T12:03:02.826Z,87.77
2023-02-25T12:04:02.568Z,87.67
2023-02-25T12:05:02.728Z,87.77
2023-02-25T12:06:03.136Z,87.57
2023-02-25T12:07:03.297Z,87.01
2023-02-25T12:08:13.656Z,85.98
2023-02-25T12:09:03.479Z,83.86
2023-02-25T12:10:02.906Z,84.99
2023-02-25T12:11:03.183Z,84.75
2023-02-25T12:12:03.103Z,84.23
2023-02-25T12:13:03.046Z,84.23
2023-02-25T12:14:03.335Z,83.92
2023-02-25T12:15:03.099Z,83.55
2023-02-25T12:16:03.622Z,83.45
2023-02-25T12:17:02.656Z,83.25
2023-02-25T12:18:02.360Z,80.36
2023-02-25T12:19:04.310Z,77.86
2023-02-25T12:20:02.696Z,79.00
2023-02-25T12:21:02.243Z,80.79
2023-02-25T12:22:02.324Z,82.34
2023-02-25T12:23:02.721Z,82.59
2023-02-25T12:24:02.827Z,83.93
2023-02-25T12:25:02.869Z,83.93
2023-02-25T12:26:02.783Z,85.06
2023-02-25T12:27:02.724Z,84.44
2023-02-25T12:28:02.787Z,84.51
2023-02-25T12:29:02.791Z,84.51
2023-02-25T12:30:02.807Z,84.09
2023-02-25T12:31:02.711Z,83.10
2023-02-25T12:32:03.417Z,82.17
2023-02-25T12:33:03.157Z,82.59
2023-02-25T12:34:02.847Z,83.86
2023-02-25T12:35:03.311Z,84.28
2023-02-25T12:36:03.266Z,84.48
2023-02-25T12:37:02.700Z,85.17
2023-02-25T12:38:02.676Z,85.37
2023-02-25T12:39:02.407Z,85.17
2023-02-25T12:40:02.208Z,85.68
2023-02-25T12:41:02.759Z,83.93
2023-02-25T12:42:03.048Z,83.20
2023-02-25T12:43:03.221Z,83.51
2023-02-25T12:44:03.010Z,84.13
2023-02-25T12:45:02.938Z,84.65
2023-02-25T12:46:02.819Z,85.47
2023-02-25T12:47:03.135Z,85.89
2023-02-25T12:48:02.913Z,85.85
2023-02-25T12:49:02.683Z,85.54
2023-02-25T12:50:03.154Z,83.78
2023-02-25T12:51:02.988Z,84.51
2023-02-25T12:52:02.571Z,85.54